createdAt,value
2022-11-13T00:02:23.981Z,6.70
2022-11-13T00:05:45.865Z,6.70
2022-11-13T00:09:07.718Z,6.70
2022-11-13T00:12:30.869Z,6.70
2022-11-13T00:16:00.537Z,6.70
2022-11-13T00:19:22.537Z,6.70
2022-11-13T00:22:44.619Z,6.80
2022-11-13T00:26:08.309Z,6.70
2022-11-13T00:29:29.998Z,6.80
2022-11-13T00:32:53.080Z,6.70
2022-11-13T00:36:17.407Z,6.70
2022-11-13T00:39:39.206Z,6.80
2022-11-13T00:43:01.081Z,6.80
2022-11-13T00:46:22.686Z,6.80
2022-11-13T00:49:45.836Z,6.80
2022-11-13T00:53:08.002Z,6.80
2022-11-13T00:56:29.777Z,6.80
2022-11-13T00:59:51.626Z,6.80
2022-11-13T01:03:14.858Z,6.80
2022-11-13T01:06:38.088Z,6.80
2022-11-13T01:09:59.800Z,6.70
2022-11-13T01:13:21.479Z,6.70
2022-11-13T01:16:43.104Z,6.70
2022-11-13T01:20:06.169Z,6.80
2022-11-13T01:23:29.227Z,6.80
2022-11-13T01:26:51.356Z,6.70
2022-11-13T01:30:13.620Z,6.70
2022-11-13T01:33:35.756Z,6.70
2022-11-13T01:36:57.336Z,6.70
2022-11-13T01:40:20.734Z,6.70
2022-11-13T01:43:42.749Z,6.70
2022-11-13T01:47:04.979Z,6.70
2022-11-13T01:50:27.400Z,6.70
2022-11-13T01:53:49.965Z,6.60
2022-11-13T01:57:14.533Z,6.70
2022-11-13T02:00:46.562Z,6.70
2022-11-13T02:04:08.936Z,6.70
2022-11-13T02:07:30.745Z,6.60
2022-11-13T02:10:52.635Z,6.60
2022-11-13T02:14:17.087Z,6.60
2022-11-13T02:17:44.265Z,6.60
2022-11-13T02:21:17.967Z,6.60
2022-11-13T02:24:45.257Z,6.50
2022-11-13T02:28:07.708Z,6.50
2022-11-13T02:31:29.218Z,6.50
2022-11-13T02:34:50.996Z,6.50
2022-11-13T02:38:12.807Z,6.50
2022-11-13T02:41:35.785Z,6.60
2022-11-13T02:44:57.754Z,6.60
2022-11-13T02:48:19.668Z,6.60
2022-11-13T02:51:41.833Z,6.60
2022-11-13T02:55:03.488Z,6.50
2022-11-13T02:58:26.974Z,6.50
2022-11-13T03:01:49.281Z,6.60
2022-11-13T03:05:15.189Z,6.60
2022-11-13T03:08:39.071Z,6.60
2022-11-13T03:12:00.936Z,6.50
2022-11-13T03:15:24.104Z,6.50
2022-11-13T03:18:45.910Z,6.50
2022-11-13T03:22:07.787Z,6.50
2022-11-13T03:25:29.504Z,6.50
2022-11-13T03:28:51.455Z,6.50
2022-11-13T03:32:14.765Z,6.50
2022-11-13T03:35:44.240Z,6.50
2022-11-13T03:39:08.511Z,6.50
2022-11-13T03:42:30.939Z,6.40
2022-11-13T03:45:52.966Z,6.40
2022-11-13T03:49:15.882Z,6.40
2022-11-13T03:52:37.691Z,6.50
2022-11-13T03:55:59.450Z,6.40
2022-11-13T03:59:21.045Z,6.40
2022-11-13T04:02:42.965Z,6.30
2022-11-13T04:06:06.604Z,6.40
2022-11-13T04:09:28.470Z,6.40
2022-11-13T04:12:50.656Z,6.40
2022-11-13T04:16:12.740Z,6.40
2022-11-13T04:19:34.809Z,6.40
2022-11-13T04:22:58.375Z,6.40
2022-11-13T04:26:22.774Z,6.40
2022-11-13T04:29:44.493Z,6.40
2022-11-13T04:33:07.018Z,6.50
2022-11-13T04:36:28.903Z,6.40
2022-11-13T04:39:52.292Z,6.40
2022-11-13T04:43:13.092Z,6.40
2022-11-13T04:46:34.980Z,6.40
2022-11-13T04:49:57.169Z,6.40
2022-11-13T04:53:18.903Z,6.40
2022-11-13T04:56:42.571Z,6.50
2022-11-13T05:00:05.311Z,6.40
2022-11-13T05:03:26.784Z,6.50
2022-11-13T05:06:48.504Z,6.50
2022-11-13T05:10:11.050Z,6.50
2022-11-13T05:13:37.219Z,6.50
2022-11-13T05:16:59.116Z,6.50
2022-11-13T05:20:20.953Z,6.60
2022-11-13T05:23:42.916Z,6.50
2022-11-13T05:27:04.797Z,6.50
2022-11-13T05:30:28.179Z,6.50
2022-11-13T05:33:50.261Z,6.50
2022-11-13T05:37:12.262Z,6.50
2022-11-13T05:40:33.851Z,6.50
2022-11-13T05:43:59.406Z,6.50
2022-11-13T05:47:23.136Z,6.50
2022-11-13T05:50:44.795Z,6.50
2022-11-13T05:54:06.614Z,6.50
2022-11-13T05:57:28.266Z,6.60
2022-11-13T06:00:50.265Z,6.50
2022-11-13T06:04:13.949Z,6.50
2022-11-13T06:07:35.904Z,6.60
2022-11-13T06:11:01.306Z,6.60
2022-11-13T06:14:23.233Z,6.60
2022-11-13T06:17:47.269Z,6.60
2022-11-13T06:21:12.603Z,6.70
2022-11-13T06:24:34.392Z,6.70
2022-11-13T06:27:56.532Z,6.70
2022-11-13T06:31:20.075Z,6.70
2022-11-13T06:34:42.001Z,6.70
2022-11-13T06:38:05.375Z,6.80
2022-11-13T06:41:29.407Z,6.80
2022-11-13T06:44:51.379Z,6.80
2022-11-13T06:48:13.019Z,6.70
2022-11-13T06:51:35.002Z,6.80
2022-11-13T06:54:57.996Z,6.80
2022-11-13T06:58:19.803Z,6.80
2022-11-13T07:01:41.835Z,6.80
2022-11-13T07:05:03.565Z,6.80
2022-11-13T07:08:26.190Z,6.80
2022-11-13T07:11:49.732Z,6.90
2022-11-13T07:15:11.954Z,7.00
2022-11-13T07:18:34.725Z,7.10
2022-11-13T07:21:56.782Z,7.10
2022-11-13T07:25:18.368Z,7.20
2022-11-13T07:28:49.589Z,7.20
2022-11-13T07:32:11.347Z,7.40
2022-11-13T07:35:33.425Z,7.50
2022-11-13T07:38:59.268Z,7.50
2022-11-13T07:42:21.818Z,7.40
2022-11-13T07:45:45.179Z,7.50
2022-11-13T07:49:07.804Z,7.50
2022-11-13T07:52:30.939Z,7.60
2022-11-13T07:55:53.148Z,7.60
2022-11-13T07:59:15.467Z,7.70
2022-11-13T08:02:39.701Z,7.70
2022-11-13T08:06:03.025Z,7.70
2022-11-13T08:09:24.875Z,7.70
2022-11-13T08:12:47.654Z,7.70
2022-11-13T08:16:09.443Z,7.80
2022-11-13T08:19:32.667Z,7.90
2022-11-13T08:22:57.605Z,8.00
2022-11-13T08:26:20.431Z,7.90
2022-11-13T08:29:42.317Z,7.80
2022-11-13T08:33:04.916Z,7.70
2022-11-13T08:36:28.779Z,7.90
2022-11-13T08:39:50.433Z,7.90
2022-11-13T08:43:12.340Z,7.90
2022-11-13T08:46:38.622Z,7.90
2022-11-13T08:50:00.623Z,7.90
2022-11-13T08:53:25.105Z,7.90
2022-11-13T08:56:54.501Z,7.90
2022-11-13T09:00:18.833Z,7.80
2022-11-13T09:03:40.619Z,7.70
2022-11-13T09:07:02.386Z,7.70
2022-11-13T09:10:26.620Z,7.80
2022-11-13T09:13:52.937Z,7.80
2022-11-13T09:17:15.335Z,7.70
2022-11-13T09:20:37.313Z,7.80
2022-11-13T09:23:58.913Z,7.80
2022-11-13T09:27:22.132Z,7.90
2022-11-13T09:30:44.157Z,8.10
2022-11-13T09:34:06.051Z,8.20
2022-11-13T09:37:27.953Z,8.30
2022-11-13T09:40:53.448Z,8.20
2022-11-13T09:44:21.976Z,8.30
2022-11-13T09:47:47.491Z,8.50
2022-11-13T09:51:15.739Z,8.60
2022-11-13T09:54:38.456Z,8.50
2022-11-13T09:58:08.272Z,8.70
2022-11-13T10:01:49.655Z,8.70
2022-11-13T10:05:22.684Z,8.80
2022-11-13T10:08:54.970Z,8.60
2022-11-13T10:12:17.725Z,8.80
2022-11-13T10:15:41.685Z,9.00
2022-11-13T10:19:16.132Z,9.10
2022-11-13T10:22:42.680Z,9.00
2022-11-13T10:26:15.086Z,9.00
2022-11-13T10:29:36.958Z,9.10
2022-11-13T10:33:05.882Z,9.30
2022-11-13T10:36:39.212Z,9.20
2022-11-13T10:40:01.005Z,9.20
2022-11-13T10:43:25.595Z,9.10
2022-11-13T10:46:47.624Z,9.30
2022-11-13T10:50:13.077Z,9.20
2022-11-13T10:53:41.264Z,9.10
2022-11-13T10:57:05.153Z,9.00
2022-11-13T11:00:32.516Z,8.90
2022-11-13T11:03:54.546Z,8.90
2022-11-13T11:07:21.071Z,9.20
2022-11-13T11:11:12.476Z,9.50
2022-11-13T11:14:39.715Z,9.80
2022-11-13T11:18:04.995Z,9.70
2022-11-13T11:21:31.750Z,9.80
2022-11-13T11:25:02.339Z,10.00
2022-11-13T11:28:32.616Z,9.80
2022-11-13T11:31:57.673Z,9.80
2022-11-13T11:35:23.006Z,9.60
2022-11-13T11:38:54.042Z,9.60
2022-11-13T11:42:25.781Z,9.40
2022-11-13T11:45:49.510Z,9.40
2022-11-13T11:49:12.095Z,9.30
2022-11-13T11:52:57.087Z,9.30
2022-11-13T11:56:26.259Z,9.00
2022-11-13T12:00:04.794Z,9.00
2022-11-13T12:03:59.249Z,9.10
2022-11-13T12:07:34.581Z,9.10
2022-11-13T12:11:03.212Z,9.20
2022-11-13T12:14:35.616Z,9.30
2022-11-13T12:18:06.561Z,9.10
2022-11-13T12:21:40.810Z,8.90
2022-11-13T12:25:15.916Z,8.90
2022-11-13T12:28:44.162Z,8.70
2022-11-13T12:32:18.548Z,8.70
2022-11-13T12:35:41.830Z,8.60
2022-11-13T12:39:27.505Z,8.70
2022-11-13T12:42:55.818Z,8.60
2022-11-13T12:46:18.029Z,8.70
2022-11-13T12:49:39.749Z,8.70
2022-11-13T12:53:03.572Z,8.80
2022-11-13T12:56:35.047Z,8.60
2022-11-13T13:00:00.527Z,8.50
2022-11-13T13:03:45.782Z,8.50
2022-11-13T13:07:23.018Z,8.50
2022-11-13T13:10:56.219Z,8.60
2022-11-13T13:14:44.091Z,8.60
2022-11-13T13:18:10.094Z,8.70
2022-11-13T13:21:41.878Z,8.60
2022-11-13T13:25:09.381Z,8.50
2022-11-13T13:28:41.154Z,8.50
2022-11-13T13:32:16.575Z,8.50
2022-11-13T13:35:48.179Z,8.60
2022-11-13T13:39:24.087Z,8.60
2022-11-13T13:43:10.790Z,8.60
2022-11-13T13:46:34.647Z,8.50
2022-11-13T13:49:59.088Z,8.50
2022-11-13T13:53:26.643Z,8.40
2022-11-13T13:56:49.151Z,8.40
2022-11-13T14:00:14.550Z,8.50
2022-11-13T14:03:37.316Z,8.40
2022-11-13T14:07:02.796Z,8.30
2022-11-13T14:10:26.385Z,8.20
2022-11-13T14:13:48.309Z,8.20
2022-11-13T14:17:11.974Z,8.20
2022-11-13T14:20:43.188Z,8.10
2022-11-13T14:24:10.015Z,8.10
2022-11-13T14:27:32.008Z,8.10
2022-11-13T14:30:56.468Z,8.10
2022-11-13T14:34:22.190Z,8.10
2022-11-13T14:37:48.662Z,8.10
2022-11-13T14:41:22.619Z,8.10
2022-11-13T14:44:44.444Z,8.10
2022-11-13T14:48:20.133Z,8.00
2022-11-13T14:51:42.451Z,8.00
2022-11-13T14:55:15.863Z,8.00
2022-11-13T14:58:43.787Z,7.90
2022-11-13T15:02:07.000Z,7.90
2022-11-13T15:05:29.284Z,7.80
2022-11-13T15:08:55.470Z,7.80
2022-11-13T15:12:17.453Z,7.80
2022-11-13T15:15:40.773Z,7.80
2022-11-13T15:19:06.089Z,7.80
2022-11-13T15:22:28.844Z,7.80
2022-11-13T15:25:50.794Z,7.80
2022-11-13T15:29:12.795Z,7.70
2022-11-13T15:32:37.788Z,7.70
2022-11-13T15:36:00.490Z,7.70
2022-11-13T15:39:23.961Z,7.70
2022-11-13T15:42:46.854Z,7.70
2022-11-13T15:46:14.796Z,7.70
2022-11-13T15:49:40.700Z,7.70
2022-11-13T15:53:12.465Z,7.70
2022-11-13T15:56:34.538Z,7.60
2022-11-13T15:59:58.277Z,7.60
2022-11-13T16:03:20.995Z,7.60
2022-11-13T16:06:49.490Z,7.60
2022-11-13T16:10:15.013Z,7.60
2022-11-13T16:13:37.092Z,7.60
2022-11-13T16:16:59.196Z,7.60
2022-11-13T16:20:21.096Z,7.60
2022-11-13T16:23:44.676Z,7.60
2022-11-13T16:27:06.921Z,7.60
2022-11-13T16:30:31.430Z,7.60
2022-11-13T16:33:53.648Z,7.60
2022-11-13T16:37:17.708Z,7.60
2022-11-13T16:40:46.643Z,7.70
2022-11-13T16:44:09.238Z,7.60
2022-11-13T16:47:32.668Z,7.60
2022-11-13T16:50:54.757Z,7.60
2022-11-13T16:54:16.911Z,7.60
2022-11-13T16:57:40.436Z,7.60
2022-11-13T17:01:02.090Z,7.60
2022-11-13T17:04:24.098Z,7.50
2022-11-13T17:07:49.914Z,7.60
2022-11-13T17:11:15.019Z,7.60
2022-11-13T17:14:39.057Z,7.60
2022-11-13T17:18:01.373Z,7.60
2022-11-13T17:21:24.811Z,7.60
2022-11-13T17:24:47.647Z,7.60
2022-11-13T17:28:09.538Z,7.60
2022-11-13T17:31:32.768Z,7.60
2022-11-13T17:34:54.828Z,7.60
2022-11-13T17:38:17.127Z,7.60
2022-11-13T17:41:40.915Z,7.60
2022-11-13T17:45:03.054Z,7.60
2022-11-13T17:48:26.168Z,7.50
2022-11-13T17:51:48.435Z,7.60
2022-11-13T17:55:13.075Z,7.50
2022-11-13T17:58:39.809Z,7.60
2022-11-13T18:02:01.855Z,7.60
2022-11-13T18:05:25.305Z,7.60
2022-11-13T18:08:47.944Z,7.50
2022-11-13T18:12:10.265Z,7.50
2022-11-13T18:15:32.217Z,7.50
2022-11-13T18:18:55.651Z,7.50
2022-11-13T18:22:19.253Z,7.50
2022-11-13T18:25:41.008Z,7.50
2022-11-13T18:29:03.424Z,7.50
2022-11-13T18:32:25.336Z,7.50
2022-11-13T18:35:47.646Z,7.50
2022-11-13T18:39:16.542Z,7.50
2022-11-13T18:42:40.436Z,7.50
2022-11-13T18:46:04.870Z,7.50
2022-11-13T18:49:26.684Z,7.50
2022-11-13T18:52:48.815Z,7.50
2022-11-13T18:56:14.399Z,7.40
2022-11-13T18:59:36.536Z,7.50
2022-11-13T19:02:58.693Z,7.50
2022-11-13T19:06:25.339Z,7.50
2022-11-13T19:09:50.708Z,7.50
2022-11-13T19:13:14.068Z,7.50
2022-11-13T19:16:37.213Z,7.60
2022-11-13T19:19:59.204Z,7.50
2022-11-13T19:23:21.603Z,7.60
2022-11-13T19:26:44.071Z,7.60
2022-11-13T19:30:08.218Z,7.60
2022-11-13T19:33:30.770Z,7.60
2022-11-13T19:36:54.402Z,7.50
2022-11-13T19:40:17.500Z,7.50
2022-11-13T19:43:41.077Z,7.50
2022-11-13T19:47:04.687Z,7.50
2022-11-13T19:50:26.943Z,7.50
2022-11-13T19:53:53.491Z,7.50
2022-11-13T19:57:15.621Z,7.50
2022-11-13T20:00:38.004Z,7.40
2022-11-13T20:04:03.000Z,7.40
2022-11-13T20:07:25.469Z,7.50
2022-11-13T20:10:47.764Z,7.50
2022-11-13T20:14:11.731Z,7.40
2022-11-13T20:17:35.917Z,7.40
2022-11-13T20:21:00.306Z,7.50
2022-11-13T20:24:21.973Z,7.50
2022-11-13T20:27:47.319Z,7.50
2022-11-13T20:31:19.634Z,7.50
2022-11-13T20:34:41.975Z,7.50
2022-11-13T20:38:05.365Z,7.50
2022-11-13T20:41:29.089Z,7.50
2022-11-13T20:44:56.175Z,7.50
2022-11-13T20:48:24.927Z,7.60
2022-11-13T20:51:47.182Z,7.50
2022-11-13T20:55:14.369Z,7.50
2022-11-13T20:58:39.588Z,7.50
2022-11-13T21:02:01.953Z,7.50
2022-11-13T21:05:24.183Z,7.50
2022-11-13T21:08:47.615Z,7.50
2022-11-13T21:12:11.665Z,7.50
2022-11-13T21:15:34.607Z,7.40
2022-11-13T21:18:57.100Z,7.50
2022-11-13T21:22:18.895Z,7.40
2022-11-13T21:25:40.832Z,7.40
2022-11-13T21:29:04.043Z,7.40
2022-11-13T21:32:25.964Z,7.40
2022-11-13T21:35:47.798Z,7.40
2022-11-13T21:39:09.998Z,7.40
2022-11-13T21:42:31.540Z,7.40
2022-11-13T21:45:54.812Z,7.40
2022-11-13T21:49:16.919Z,7.50
2022-11-13T21:52:38.681Z,7.50
2022-11-13T21:56:00.884Z,7.50
2022-11-13T21:59:23.255Z,7.50
2022-11-13T22:02:46.314Z,7.50
2022-11-13T22:06:19.394Z,7.50
2022-11-13T22:09:41.327Z,7.50
2022-11-13T22:13:03.507Z,7.50
2022-11-13T22:16:26.546Z,7.50
2022-11-13T22:19:49.809Z,7.50
2022-11-13T22:23:11.935Z,7.50
2022-11-13T22:26:37.685Z,7.50
2022-11-13T22:30:00.242Z,7.50
2022-11-13T22:33:22.331Z,7.50
2022-11-13T22:36:46.140Z,7.50
2022-11-13T22:40:09.392Z,7.50
2022-11-13T22:43:36.701Z,7.50
2022-11-13T22:46:58.574Z,7.50
2022-11-13T22:50:20.590Z,7.50
2022-11-13T22:53:48.677Z,7.60
2022-11-13T22:57:10.847Z,7.50
2022-11-13T23:00:32.455Z,7.50
2022-11-13T23:03:55.982Z,7.50
2022-11-13T23:07:17.841Z,7.50
2022-11-13T23:10:41.126Z,7.60
2022-11-13T23:14:05.660Z,7.50
2022-11-13T23:17:27.401Z,7.60
2022-11-13T23:20:49.295Z,7.60
2022-11-13T23:24:11.942Z,7.60
2022-11-13T23:27:34.909Z,7.60
2022-11-13T23:30:56.922Z,7.60
2022-11-13T23:34:38.294Z,7.50
2022-11-13T23:38:00.822Z,7.50
2022-11-13T23:41:22.945Z,7.60
2022-11-13T23:44:46.295Z,7.60
2022-11-13T23:48:08.266Z,7.50
2022-11-13T23:51:30.618Z,7.60
2022-11-13T23:54:52.400Z,7.60
2022-11-13T23:58:18.263Z,7.60
